sensor_id;sensor_type;location;lat;lon;timestamp;P1;durP1;ratioP1;P2;durP2;ratioP2
5393;SDS011;2720;52.396;10.064;2023-02-28T00:01:31;4.45;;;2.22;;
5393;SDS011;2720;52.396;10.064;2023-02-28T00:03:59;3.95;;;2.42;;
5393;SDS011;2720;52.396;10.064;2023-02-28T00:06:26;3.22;;;1.80;;
5393;SDS011;2720;52.396;10.064;2023-02-28T00:08:53;3.72;;;1.85;;
5393;SDS011;2720;52.396;10.064;2023-02-28T00:11:21;1.77;;;1.67;;
5393;SDS011;2720;52.396;10.064;2023-02-28T00:13:49;2.88;;;1.90;;
5393;SDS011;2720;52.396;10.064;2023-02-28T00:16:17;9.32;;;1.80;;
5393;SDS011;2720;52.396;10.064;2023-02-28T00:18:45;2.03;;;1.63;;
5393;SDS011;2720;52.396;10.064;2023-02-28T00:21:13;2.13;;;1.45;;
5393;SDS011;2720;52.396;10.064;2023-02-28T00:23:40;2.95;;;1.80;;
5393;SDS011;2720;52.396;10.064;2023-02-28T00:26:07;3.47;;;1.92;;
5393;SDS011;2720;52.396;10.064;2023-02-28T00:28:34;4.93;;;2.33;;
5393;SDS011;2720;52.396;10.064;2023-02-28T00:31:03;1.60;;;1.50;;
5393;SDS011;2720;52.396;10.064;2023-02-28T00:33:30;3.28;;;2.10;;
5393;SDS011;2720;52.396;10.064;2023-02-28T00:36:04;3.60;;;2.05;;
5393;SDS011;2720;52.396;10.064;2023-02-28T00:38:33;11.65;;;2.55;;
5393;SDS011;2720;52.396;10.064;2023-02-28T00:41:00;3.05;;;1.88;;
5393;SDS011;2720;52.396;10.064;2023-02-28T00:43:29;2.40;;;1.48;;
5393;SDS011;2720;52.396;10.064;2023-02-28T00:45:57;2.05;;;1.60;;
5393;SDS011;2720;52.396;10.064;2023-02-28T00:48:26;5.22;;;2.15;;
5393;SDS011;2720;52.396;10.064;2023-02-28T00:50:53;2.17;;;1.98;;
5393;SDS011;2720;52.396;10.064;2023-02-28T00:53:20;7.70;;;2.08;;
5393;SDS011;2720;52.396;10.064;2023-02-28T00:55:48;2.78;;;1.70;;
5393;SDS011;2720;52.396;10.064;2023-02-28T00:58:15;2.80;;;2.03;;
5393;SDS011;2720;52.396;10.064;2023-02-28T01:00:42;3.08;;;1.80;;
5393;SDS011;2720;52.396;10.064;2023-02-28T01:03:14;6.15;;;2.33;;
5393;SDS011;2720;52.396;10.064;2023-02-28T01:05:43;5.55;;;1.98;;
5393;SDS011;2720;52.396;10.064;2023-02-28T01:08:10;2.97;;;2.00;;
5393;SDS011;2720;52.396;10.064;2023-02-28T01:10:38;2.13;;;1.92;;
5393;SDS011;2720;52.396;10.064;2023-02-28T01:13:06;3.28;;;2.50;;
5393;SDS011;2720;52.396;10.064;2023-02-28T01:15:33;4.28;;;2.70;;
5393;SDS011;2720;52.396;10.064;2023-02-28T01:18:00;4.20;;;2.80;;
5393;SDS011;2720;52.396;10.064;2023-02-28T01:20:27;3.25;;;2.85;;
5393;SDS011;2720;52.396;10.064;2023-02-28T01:22:56;5.80;;;2.42;;
5393;SDS011;2720;52.396;10.064;2023-02-28T01:25:22;2.67;;;2.03;;
5393;SDS011;2720;52.396;10.064;2023-02-28T01:27:49;4.85;;;3.00;;
5393;SDS011;2720;52.396;10.064;2023-02-28T01:30:17;6.47;;;2.90;;
5393;SDS011;2720;52.396;10.064;2023-02-28T01:32:44;5.50;;;3.47;;
5393;SDS011;2720;52.396;10.064;2023-02-28T01:35:11;10.77;;;3.50;;
5393;SDS011;2720;52.396;10.064;2023-02-28T01:37:38;7.97;;;3.08;;
5393;SDS011;2720;52.396;10.064;2023-02-28T01:40:07;6.72;;;3.20;;
5393;SDS011;2720;52.396;10.064;2023-02-28T01:42:35;5.97;;;3.15;;
5393;SDS011;2720;52.396;10.064;2023-02-28T01:45:04;2.70;;;2.50;;
5393;SDS011;2720;52.396;10.064;2023-02-28T01:47:44;4.97;;;3.08;;
5393;SDS011;2720;52.396;10.064;2023-02-28T01:50:14;3.30;;;2.50;;
5393;SDS011;2720;52.396;10.064;2023-02-28T01:52:45;4.32;;;3.03;;
5393;SDS011;2720;52.396;10.064;2023-02-28T01:55:16;4.47;;;2.85;;
5393;SDS011;2720;52.396;10.064;2023-02-28T01:57:45;6.75;;;3.53;;
5393;SDS011;2720;52.396;10.064;2023-02-28T02:00:16;5.28;;;3.67;;
5393;SDS011;2720;52.396;10.064;2023-02-28T02:02:45;7.95;;;3.78;;
5393;SDS011;2720;52.396;10.064;2023-02-28T02:05:15;3.63;;;3.33;;
5393;SDS011;2720;52.396;10.064;2023-02-28T02:07:45;7.03;;;3.30;;
5393;SDS011;2720;52.396;10.064;2023-02-28T02:10:16;6.45;;;3.95;;
5393;SDS011;2720;52.396;10.064;2023-02-28T02:12:52;13.60;;;3.35;;
5393;SDS011;2720;52.396;10.064;2023-02-28T02:15:31;5.55;;;3.08;;
5393;SDS011;2720;52.396;10.064;2023-02-28T02:18:02;4.03;;;2.95;;
5393;SDS011;2720;52.396;10.064;2023-02-28T02:20:59;6.20;;;3.15;;
5393;SDS011;2720;52.396;10.064;2023-02-28T02:27:22;3.70;;;3.10;;
5393;SDS011;2720;52.396;10.064;2023-02-28T02:30:29;4.88;;;3.33;;
5393;SDS011;2720;52.396;10.064;2023-02-28T02:33:13;5.85;;;3.90;;
5393;SDS011;2720;52.396;10.064;2023-02-28T02:35:53;4.75;;;3.88;;
5393;SDS011;2720;52.396;10.064;2023-02-28T02:38:24;5.80;;;3.13;;
5393;SDS011;2720;52.396;10.064;2023-02-28T02:41:17;6.32;;;3.53;;
5393;SDS011;2720;52.396;10.064;2023-02-28T02:43:50;7.78;;;3.60;;
5393;SDS011;2720;52.396;10.064;2023-02-28T02:46:19;7.50;;;3.10;;
5393;SDS011;2720;52.396;10.064;2023-02-28T02:48:49;4.90;;;3.55;;
5393;SDS011;2720;52.396;10.064;2023-02-28T02:51:23;9.32;;;3.97;;
5393;SDS011;2720;52.396;10.064;2023-02-28T02:53:51;7.38;;;3.97;;
5393;SDS011;2720;52.396;10.064;2023-02-28T02:56:24;6.90;;;3.83;;
5393;SDS011;2720;52.396;10.064;2023-02-28T02:58:56;5.32;;;3.65;;
5393;SDS011;2720;52.396;10.064;2023-02-28T03:01:27;5.10;;;3.40;;
5393;SDS011;2720;52.396;10.064;2023-02-28T03:03:57;12.18;;;4.10;;
5393;SDS011;2720;52.396;10.064;2023-02-28T03:06:28;6.72;;;2.72;;
5393;SDS011;2720;52.396;10.064;2023-02-28T03:08:55;3.75;;;3.22;;
5393;SDS011;2720;52.396;10.064;2023-02-28T03:11:22;7.72;;;4.07;;
5393;SDS011;2720;52.396;10.064;2023-02-28T03:14:05;9.07;;;3.38;;
5393;SDS011;2720;52.396;10.064;2023-02-28T03:16:56;3.80;;;3.25;;
5393;SDS011;2720;52.396;10.064;2023-02-28T03:19:45;4.13;;;2.97;;
5393;SDS011;2720;52.396;10.064;2023-02-28T03:22:23;5.70;;;3.03;;
5393;SDS011;2720;52.396;10.064;2023-02-28T03:25:07;8.38;;;4.20;;
5393;SDS011;2720;52.396;10.064;2023-02-28T03:27:40;7.93;;;3.60;;
5393;SDS011;2720;52.396;10.064;2023-02-28T03:30:14;5.05;;;3.47;;
5393;SDS011;2720;52.396;10.064;2023-02-28T03:32:51;9.32;;;3.60;;
5393;SDS011;2720;52.396;10.064;2023-02-28T03:35:23;6.00;;;3.70;;
5393;SDS011;2720;52.396;10.064;2023-02-28T03:37:55;3.55;;;2.40;;
5393;SDS011;2720;52.396;10.064;2023-02-28T03:40:30;4.50;;;2.83;;
5393;SDS011;2720;52.396;10.064;2023-02-28T03:43:02;8.57;;;3.15;;
5393;SDS011;2720;52.396;10.064;2023-02-28T03:45:36;6.10;;;3.40;;
5393;SDS011;2720;52.396;10.064;2023-02-28T03:48:07;4.63;;;3.13;;
5393;SDS011;2720;52.396;10.064;2023-02-28T03:50:39;4.60;;;3.05;;
5393;SDS011;2720;52.396;10.064;2023-02-28T03:53:10;6.32;;;3.95;;
5393;SDS011;2720;52.396;10.064;2023-02-28T03:55:41;7.25;;;2.95;;
5393;SDS011;2720;52.396;10.064;2023-02-28T03:58:13;5.50;;;2.88;;
5393;SDS011;2720;52.396;10.064;2023-02-28T04:00:47;8.43;;;3.67;;
5393;SDS011;2720;52.396;10.064;2023-02-28T04:03:19;3.78;;;3.25;;
5393;SDS011;2720;52.396;10.064;2023-02-28T04:05:47;4.03;;;3.08;;
5393;SDS011;2720;52.396;10.064;2023-02-28T04:08:18;4.25;;;3.00;;
5393;SDS011;2720;52.396;10.064;2023-02-28T04:10:48;4.72;;;2.85;;
5393;SDS011;2720;52.396;10.064;2023-02-28T04:13:19;8.48;;;3.90;;
5393;SDS011;2720;52.396;10.064;2023-02-28T04:15:46;5.95;;;3.78;;
5393;SDS011;2720;52.396;10.064;2023-02-28T04:18:13;3.90;;;3.20;;
5393;SDS011;2720;52.396;10.064;2023-02-28T04:20:40;5.40;;;3.30;;
5393;SDS011;2720;52.396;10.064;2023-02-28T04:23:07;8.00;;;3.88;;
5393;SDS011;2720;52.396;10.064;2023-02-28T04:25:35;7.97;;;4.18;;
5393;SDS011;2720;52.396;10.064;2023-02-28T04:28:05;5.95;;;3.80;;
5393;SDS011;2720;52.396;10.064;2023-02-28T04:30:32;6.97;;;3.65;;
5393;SDS011;2720;52.396;10.064;2023-02-28T04:32:59;7.68;;;4.13;;
5393;SDS011;2720;52.396;10.064;2023-02-28T04:35:26;11.43;;;4.80;;
5393;SDS011;2720;52.396;10.064;2023-02-28T04:37:53;8.88;;;5.30;;
5393;SDS011;2720;52.396;10.064;2023-02-28T04:40:20;7.35;;;4.22;;
5393;SDS011;2720;52.396;10.064;2023-02-28T04:42:48;6.85;;;3.70;;
5393;SDS011;2720;52.396;10.064;2023-02-28T04:45:15;7.75;;;4.20;;
5393;SDS011;2720;52.396;10.064;2023-02-28T04:47:43;7.70;;;4.90;;
5393;SDS011;2720;52.396;10.064;2023-02-28T04:50:10;11.88;;;5.53;;
5393;SDS011;2720;52.396;10.064;2023-02-28T04:52:37;11.00;;;4.95;;
5393;SDS011;2720;52.396;10.064;2023-02-28T04:55:04;8.48;;;4.50;;
5393;SDS011;2720;52.396;10.064;2023-02-28T04:57:32;13.85;;;6.00;;
5393;SDS011;2720;52.396;10.064;2023-02-28T05:00:00;8.07;;;5.15;;
5393;SDS011;2720;52.396;10.064;2023-02-28T05:02:29;14.75;;;4.50;;
5393;SDS011;2720;52.396;10.064;2023-02-28T05:04:56;14.75;;;5.38;;
5393;SDS011;2720;52.396;10.064;2023-02-28T05:07:23;4.78;;;3.85;;
5393;SDS011;2720;52.396;10.064;2023-02-28T05:09:50;6.93;;;4.70;;
5393;SDS011;2720;52.396;10.064;2023-02-28T05:12:18;8.68;;;4.45;;
5393;SDS011;2720;52.396;10.064;2023-02-28T05:14:45;10.63;;;5.45;;
5393;SDS011;2720;52.396;10.064;2023-02-28T05:17:13;14.52;;;6.10;;
5393;SDS011;2720;52.396;10.064;2023-02-28T05:19:40;8.20;;;5.00;;
5393;SDS011;2720;52.396;10.064;2023-02-28T05:22:11;12.65;;;6.55;;
5393;SDS011;2720;52.396;10.064;2023-02-28T05:24:41;17.40;;;6.95;;
5393;SDS011;2720;52.396;10.064;2023-02-28T05:27:09;18.92;;;6.93;;
5393;SDS011;2720;52.396;10.064;2023-02-28T05:29:36;14.15;;;7.07;;
5393;SDS011;2720;52.396;10.064;2023-02-28T05:32:08;14.05;;;6.43;;
5393;SDS011;2720;52.396;10.064;2023-02-28T05:34:37;15.90;;;6.25;;
5393;SDS011;2720;52.396;10.064;2023-02-28T05:37:05;18.52;;;7.55;;
5393;SDS011;2720;52.396;10.064;2023-02-28T05:39:32;13.75;;;6.72;;
5393;SDS011;2720;52.396;10.064;2023-02-28T05:41:59;34.45;;;12.93;;
5393;SDS011;2720;52.396;10.064;2023-02-28T05:44:26;32.72;;;11.90;;
5393;SDS011;2720;52.396;10.064;2023-02-28T05:46:53;26.02;;;11.73;;
5393;SDS011;2720;52.396;10.064;2023-02-28T05:49:20;15.85;;;9.93;;
5393;SDS011;2720;52.396;10.064;2023-02-28T05:51:48;31.33;;;11.05;;
5393;SDS011;2720;52.396;10.064;2023-02-28T05:54:15;14.20;;;8.27;;
5393;SDS011;2720;52.396;10.064;2023-02-28T05:56:42;12.40;;;6.93;;
5393;SDS011;2720;52.396;10.064;2023-02-28T05:59:10;9.95;;;6.07;;
5393;SDS011;2720;52.396;10.064;2023-02-28T06:01:38;8.98;;;6.10;;
5393;SDS011;2720;52.396;10.064;2023-02-28T06:04:07;12.90;;;5.70;;
5393;SDS011;2720;52.396;10.064;2023-02-28T06:06:37;11.55;;;6.05;;
5393;SDS011;2720;52.396;10.064;2023-02-28T06:09:05;8.82;;;5.20;;
5393;SDS011;2720;52.396;10.064;2023-02-28T06:11:32;9.23;;;5.80;;
5393;SDS011;2720;52.396;10.064;2023-02-28T06:14:00;5.53;;;4.57;;
5393;SDS011;2720;52.396;10.064;2023-02-28T06:16:27;12.13;;;6.25;;
5393;SDS011;2720;52.396;10.064;2023-02-28T06:18:56;8.60;;;5.05;;
5393;SDS011;2720;52.396;10.064;2023-02-28T06:21:24;10.73;;;5.97;;
5393;SDS011;2720;52.396;10.064;2023-02-28T06:23:52;7.22;;;5.35;;
5393;SDS011;2720;52.396;10.064;2023-02-28T06:26:20;9.45;;;5.30;;
5393;SDS011;2720;52.396;10.064;2023-02-28T06:28:47;15.07;;;6.65;;
5393;SDS011;2720;52.396;10.064;2023-02-28T06:31:16;13.25;;;8.00;;
5393;SDS011;2720;52.396;10.064;2023-02-28T06:33:44;17.38;;;7.63;;
5393;SDS011;2720;52.396;10.064;2023-02-28T06:36:12;11.27;;;7.82;;
5393;SDS011;2720;52.396;10.064;2023-02-28T06:38:40;14.05;;;6.97;;
5393;SDS011;2720;52.396;10.064;2023-02-28T06:41:07;18.58;;;8.13;;
5393;SDS011;2720;52.396;10.064;2023-02-28T06:43:37;22.75;;;10.10;;
5393;SDS011;2720;52.396;10.064;2023-02-28T06:46:06;83.05;;;30.00;;
5393;SDS011;2720;52.396;10.064;2023-02-28T06:48:35;28.13;;;13.18;;
5393;SDS011;2720;52.396;10.064;2023-02-28T06:51:03;22.27;;;11.38;;
5393;SDS011;2720;52.396;10.064;2023-02-28T06:53:31;24.23;;;11.23;;
5393;SDS011;2720;52.396;10.064;2023-02-28T06:55:59;31.58;;;13.18;;
5393;SDS011;2720;52.396;10.064;2023-02-28T06:58:30;35.65;;;15.13;;
5393;SDS011;2720;52.396;10.064;2023-02-28T07:00:59;26.70;;;11.77;;
5393;SDS011;2720;52.396;10.064;2023-02-28T07:03:26;20.83;;;10.88;;
5393;SDS011;2720;52.396;10.064;2023-02-28T07:05:53;20.15;;;10.68;;
5393;SDS011;2720;52.396;10.064;2023-02-28T07:08:21;23.13;;;11.02;;
5393;SDS011;2720;52.396;10.064;2023-02-28T07:10:51;30.90;;;12.50;;
5393;SDS011;2720;52.396;10.064;2023-02-28T07:13:19;21.75;;;11.63;;
5393;SDS011;2720;52.396;10.064;2023-02-28T07:15:52;19.05;;;10.90;;
5393;SDS011;2720;52.396;10.064;2023-02-28T07:18:22;31.02;;;12.15;;
5393;SDS011;2720;52.396;10.064;2023-02-28T07:20:49;25.42;;;10.82;;
5393;SDS011;2720;52.396;10.064;2023-02-28T07:23:17;21.00;;;11.88;;
5393;SDS011;2720;52.396;10.064;2023-02-28T07:25:44;13.52;;;9.77;;
5393;SDS011;2720;52.396;10.064;2023-02-28T07:28:11;26.20;;;11.27;;
5393;SDS011;2720;52.396;10.064;2023-02-28T07:30:39;18.02;;;10.65;;
5393;SDS011;2720;52.396;10.064;2023-02-28T07:33:06;18.98;;;9.77;;
5393;SDS011;2720;52.396;10.064;2023-02-28T07:35:34;16.80;;;9.55;;
5393;SDS011;2720;52.396;10.064;2023-02-28T07:38:02;17.65;;;10.23;;
5393;SDS011;2720;52.396;10.064;2023-02-28T07:40:30;16.65;;;10.10;;
5393;SDS011;2720;52.396;10.064;2023-02-28T07:42:58;23.55;;;10.65;;
5393;SDS011;2720;52.396;10.064;2023-02-28T07:45:25;24.20;;;11.85;;
5393;SDS011;2720;52.396;10.064;2023-02-28T07:47:53;21.40;;;11.25;;
5393;SDS011;2720;52.396;10.064;2023-02-28T07:50:21;20.02;;;10.82;;
5393;SDS011;2720;52.396;10.064;2023-02-28T07:52:50;20.83;;;9.55;;
5393;SDS011;2720;52.396;10.064;2023-02-28T07:55:17;17.25;;;9.93;;
5393;SDS011;2720;52.396;10.064;2023-02-28T07:57:44;15.65;;;8.63;;
5393;SDS011;2720;52.396;10.064;2023-02-28T08:00:11;18.17;;;8.25;;
5393;SDS011;2720;52.396;10.064;2023-02-28T08:02:39;15.73;;;7.15;;
5393;SDS011;2720;52.396;10.064;2023-02-28T08:05:06;10.52;;;6.93;;
5393;SDS011;2720;52.396;10.064;2023-02-28T08:07:34;10.05;;;6.35;;
5393;SDS011;2720;52.396;10.064;2023-02-28T08:10:02;9.68;;;6.03;;
5393;SDS011;2720;52.396;10.064;2023-02-28T08:12:31;9.43;;;5.07;;
5393;SDS011;2720;52.396;10.064;2023-02-28T08:14:58;13.25;;;5.70;;
5393;SDS011;2720;52.396;10.064;2023-02-28T08:17:25;15.00;;;4.35;;
5393;SDS011;2720;52.396;10.064;2023-02-28T08:19:52;6.60;;;3.72;;
5393;SDS011;2720;52.396;10.064;2023-02-28T08:22:19;5.32;;;3.97;;
5393;SDS011;2720;52.396;10.064;2023-02-28T08:24:46;5.50;;;2.80;;
5393;SDS011;2720;52.396;10.064;2023-02-28T08:27:15;5.18;;;3.25;;
5393;SDS011;2720;52.396;10.064;2023-02-28T08:29:42;4.77;;;2.80;;
5393;SDS011;2720;52.396;10.064;2023-02-28T08:32:09;3.30;;;2.27;;
5393;SDS011;2720;52.396;10.064;2023-02-28T08:34:38;4.40;;;2.92;;
5393;SDS011;2720;52.396;10.064;2023-02-28T08:37:06;2.87;;;2.40;;
5393;SDS011;2720;52.396;10.064;2023-02-28T08:39:34;5.00;;;2.67;;
5393;SDS011;2720;52.396;10.064;2023-02-28T08:42:01;4.43;;;3.30;;
5393;SDS011;2720;52.396;10.064;2023-02-28T08:44:30;3.77;;;2.73;;
5393;SDS011;2720;52.396;10.064;2023-02-28T08:46:57;3.13;;;2.70;;
5393;SDS011;2720;52.396;10.064;2023-02-28T08:49:24;2.87;;;2.30;;
5393;SDS011;2720;52.396;10.064;2023-02-28T08:51:50;4.63;;;2.40;;
5393;SDS011;2720;52.396;10.064;2023-02-28T08:54:17;4.47;;;2.67;;
5393;SDS011;2720;52.396;10.064;2023-02-28T08:56:44;5.20;;;2.77;;
5393;SDS011;2720;52.396;10.064;2023-02-28T08:59:12;7.37;;;3.50;;
5393;SDS011;2720;52.396;10.064;2023-02-28T09:01:40;7.93;;;3.53;;
5393;SDS011;2720;52.396;10.064;2023-02-28T09:04:08;3.33;;;2.40;;
5393;SDS011;2720;52.396;10.064;2023-02-28T09:06:36;4.80;;;3.00;;
5393;SDS011;2720;52.396;10.064;2023-02-28T09:09:04;3.80;;;2.57;;
5393;SDS011;2720;52.396;10.064;2023-02-28T09:11:32;2.43;;;2.23;;
5393;SDS011;2720;52.396;10.064;2023-02-28T09:14:00;4.80;;;2.23;;
5393;SDS011;2720;52.396;10.064;2023-02-28T09:16:28;5.20;;;2.50;;
5393;SDS011;2720;52.396;10.064;2023-02-28T09:18:58;3.97;;;2.70;;
5393;SDS011;2720;52.396;10.064;2023-02-28T09:21:25;6.53;;;2.90;;
5393;SDS011;2720;52.396;10.064;2023-02-28T09:23:52;4.10;;;2.30;;
5393;SDS011;2720;52.396;10.064;2023-02-28T09:26:20;5.03;;;2.37;;
5393;SDS011;2720;52.396;10.064;2023-02-28T09:28:48;2.60;;;1.67;;
5393;SDS011;2720;52.396;10.064;2023-02-28T09:31:16;3.50;;;2.37;;
5393;SDS011;2720;52.396;10.064;2023-02-28T09:33:46;5.13;;;1.40;;
5393;SDS011;2720;52.396;10.064;2023-02-28T09:36:16;3.70;;;1.97;;
5393;SDS011;2720;52.396;10.064;2023-02-28T09:38:43;1.50;;;1.40;;
5393;SDS011;2720;52.396;10.064;2023-02-28T09:41:12;3.70;;;1.40;;
5393;SDS011;2720;52.396;10.064;2023-02-28T09:43:41;4.00;;;1.73;;
5393;SDS011;2720;52.396;10.064;2023-02-28T09:46:14;1.90;;;1.70;;
5393;SDS011;2720;52.396;10.064;2023-02-28T09:48:52;6.60;;;1.50;;
5393;SDS011;2720;52.396;10.064;2023-02-28T09:51:33;2.10;;;1.47;;
5393;SDS011;2720;52.396;10.064;2023-02-28T09:54:09;5.00;;;2.07;;
5393;SDS011;2720;52.396;10.064;2023-02-28T09:56:44;1.67;;;1.50;;
5393;SDS011;2720;52.396;10.064;2023-02-28T09:59:18;3.30;;;1.07;;
5393;SDS011;2720;52.396;10.064;2023-02-28T10:01:56;8.10;;;3.40;;
5393;SDS011;2720;52.396;10.064;2023-02-28T10:04:34;3.73;;;1.20;;
5393;SDS011;2720;52.396;10.064;2023-02-28T10:07:13;1.73;;;1.37;;
5393;SDS011;2720;52.396;10.064;2023-02-28T10:09:49;1.77;;;0.90;;
5393;SDS011;2720;52.396;10.064;2023-02-28T10:12:21;11.57;;;2.07;;
5393;SDS011;2720;52.396;10.064;2023-02-28T10:14:49;1.77;;;1.50;;
5393;SDS011;2720;52.396;10.064;2023-02-28T10:17:19;1.10;;;1.00;;
5393;SDS011;2720;52.396;10.064;2023-02-28T10:19:51;2.10;;;1.13;;
5393;SDS011;2720;52.396;10.064;2023-02-28T10:22:26;1.50;;;1.20;;
5393;SDS011;2720;52.396;10.064;2023-02-28T10:24:58;1.23;;;1.00;;
5393;SDS011;2720;52.396;10.064;2023-02-28T10:27:29;2.13;;;1.20;;
5393;SDS011;2720;52.396;10.064;2023-02-28T10:29:57;7.60;;;1.33;;
5393;SDS011;2720;52.396;10.064;2023-02-28T10:32:26;2.17;;;1.43;;
5393;SDS011;2720;52.396;10.064;2023-02-28T10:34:57;1.87;;;1.00;;
5393;SDS011;2720;52.396;10.064;2023-02-28T10:37:28;3.37;;;1.77;;
5393;SDS011;2720;52.396;10.064;2023-02-28T10:39:56;2.63;;;1.60;;
5393;SDS011;2720;52.396;10.064;2023-02-28T10:42:24;3.27;;;1.47;;
5393;SDS011;2720;52.396;10.064;2023-02-28T10:47:42;1.90;;;1.23;;
5393;SDS011;2720;52.396;10.064;2023-02-28T10:50:28;2.43;;;1.67;;
5393;SDS011;2720;52.396;10.064;2023-02-28T10:52:58;2.77;;;1.47;;
5393;SDS011;2720;52.396;10.064;2023-02-28T10:55:39;1.53;;;1.30;;
5393;SDS011;2720;52.396;10.064;2023-02-28T10:58:14;8.43;;;1.83;;
5393;SDS011;2720;52.396;10.064;2023-02-28T11:00:48;1.87;;;1.23;;
5393;SDS011;2720;52.396;10.064;2023-02-28T11:03:29;3.43;;;1.40;;
5393;SDS011;2720;52.396;10.064;2023-02-28T11:05:57;2.73;;;2.00;;
5393;SDS011;2720;52.396;10.064;2023-02-28T11:08:31;7.50;;;2.67;;
5393;SDS011;2720;52.396;10.064;2023-02-28T11:11:01;4.23;;;1.87;;
5393;SDS011;2720;52.396;10.064;2023-02-28T11:13:32;2.80;;;1.10;;
5393;SDS011;2720;52.396;10.064;2023-02-28T11:16:03;5.20;;;1.43;;
5393;SDS011;2720;52.396;10.064;2023-02-28T11:18:33;3.83;;;0.90;;
5393;SDS011;2720;52.396;10.064;2023-02-28T11:21:06;1.70;;;1.10;;
5393;SDS011;2720;52.396;10.064;2023-02-28T11:23:39;1.93;;;1.00;;
5393;SDS011;2720;52.396;10.064;2023-02-28T11:26:07;2.33;;;1.50;;
5393;SDS011;2720;52.396;10.064;2023-02-28T11:28:37;2.77;;;1.30;;
5393;SDS011;2720;52.396;10.064;2023-02-28T11:31:14;3.10;;;1.87;;
5393;SDS011;2720;52.396;10.064;2023-02-28T11:33:44;4.07;;;2.53;;
5393;SDS011;2720;52.396;10.064;2023-02-28T11:36:16;3.20;;;1.47;;
5393;SDS011;2720;52.396;10.064;2023-02-28T11:38:47;3.90;;;2.00;;
5393;SDS011;2720;52.396;10.064;2023-02-28T11:44:22;4.97;;;1.93;;
5393;SDS011;2720;52.396;10.064;2023-02-28T11:47:01;1.57;;;1.30;;
5393;SDS011;2720;52.396;10.064;2023-02-28T11:49:34;3.13;;;2.00;;
5393;SDS011;2720;52.396;10.064;2023-02-28T11:52:10;3.63;;;1.57;;
5393;SDS011;2720;52.396;10.064;2023-02-28T11:54:57;1.67;;;1.40;;
5393;SDS011;2720;52.396;10.064;2023-02-28T11:57:33;3.80;;;1.90;;
5393;SDS011;2720;52.396;10.064;2023-02-28T12:00:06;4.93;;;1.80;;
5393;SDS011;2720;52.396;10.064;2023-02-28T12:02:50;2.50;;;1.60;;
5393;SDS011;2720;52.396;10.064;2023-02-28T12:05:28;5.50;;;1.50;;
5393;SDS011;2720;52.396;10.064;2023-02-28T12:08:03;2.37;;;1.30;;
5393;SDS011;2720;52.396;10.064;2023-02-28T12:10:44;5.07;;;2.30;;
5393;SDS011;2720;52.396;10.064;2023-02-28T12:13:24;2.93;;;1.43;;
5393;SDS011;2720;52.396;10.064;2023-02-28T12:16:00;3.60;;;1.63;;
5393;SDS011;2720;52.396;10.064;2023-02-28T12:18:56;3.90;;;2.00;;
5393;SDS011;2720;52.396;10.064;2023-02-28T12:21:35;1.67;;;1.40;;
5393;SDS011;2720;52.396;10.064;2023-02-28T12:24:26;4.57;;;1.73;;
5393;SDS011;2720;52.396;10.064;2023-02-28T12:27:28;2.67;;;1.60;;
5393;SDS011;2720;52.396;10.064;2023-02-28T12:30:00;2.13;;;1.93;;
5393;SDS011;2720;52.396;10.064;2023-02-28T12:32:30;3.17;;;1.43;;
5393;SDS011;2720;52.396;10.064;2023-02-28T12:35:02;2.40;;;1.50;;
5393;SDS011;2720;52.396;10.064;2023-02-28T12:37:33;6.03;;;1.83;;
5393;SDS011;2720;52.396;10.064;2023-02-28T12:40:06;2.40;;;1.27;;
5393;SDS011;2720;52.396;10.064;2023-02-28T12:42:41;1.80;;;1.70;;
5393;SDS011;2720;52.396;10.064;2023-02-28T12:45:13;1.77;;;1.40;;
5393;SDS011;2720;52.396;10.064;2023-02-28T12:47:45;2.20;;;1.53;;
5393;SDS011;2720;52.396;10.064;2023-02-28T12:50:16;1.60;;;1.50;;
5393;SDS011;2720;52.396;10.064;2023-02-28T12:52:47;4.47;;;1.67;;
5393;SDS011;2720;52.396;10.064;2023-02-28T12:55:20;2.50;;;1.60;;
5393;SDS011;2720;52.396;10.064;2023-02-28T12:58:01;4.00;;;1.60;;
5393;SDS011;2720;52.396;10.064;2023-02-28T13:00:42;2.63;;;2.07;;
5393;SDS011;2720;52.396;10.064;2023-02-28T13:06:28;4.63;;;2.67;;
5393;SDS011;2720;52.396;10.064;2023-02-28T13:09:09;5.10;;;2.57;;
5393;SDS011;2720;52.396;10.064;2023-02-28T13:11:40;4.37;;;2.20;;
5393;SDS011;2720;52.396;10.064;2023-02-28T13:17:03;4.27;;;1.47;;
5393;SDS011;2720;52.396;10.064;2023-02-28T13:19:38;4.70;;;2.30;;
5393;SDS011;2720;52.396;10.064;2023-02-28T13:22:15;2.33;;;1.60;;
5393;SDS011;2720;52.396;10.064;2023-02-28T13:24:48;5.33;;;2.00;;
5393;SDS011;2720;52.396;10.064;2023-02-28T13:33:25;2.47;;;1.50;;
5393;SDS011;2720;52.396;10.064;2023-02-28T13:36:07;5.30;;;2.97;;
5393;SDS011;2720;52.396;10.064;2023-02-28T13:38:49;2.20;;;1.60;;
5393;SDS011;2720;52.396;10.064;2023-02-28T13:44:10;1.73;;;1.60;;
5393;SDS011;2720;52.396;10.064;2023-02-28T13:49:40;8.40;;;1.60;;
5393;SDS011;2720;52.396;10.064;2023-02-28T13:52:10;2.90;;;1.70;;
5393;SDS011;2720;52.396;10.064;2023-02-28T13:54:48;2.23;;;1.37;;
5393;SDS011;2720;52.396;10.064;2023-02-28T13:57:26;3.40;;;1.60;;
5393;SDS011;2720;52.396;10.064;2023-02-28T14:00:08;1.33;;;1.20;;
5393;SDS011;2720;52.396;10.064;2023-02-28T14:02:55;2.20;;;1.37;;
5393;SDS011;2720;52.396;10.064;2023-02-28T14:05:42;3.27;;;2.00;;
5393;SDS011;2720;52.396;10.064;2023-02-28T14:08:12;4.20;;;2.53;;
5393;SDS011;2720;52.396;10.064;2023-02-28T14:10:43;4.17;;;3.03;;
5393;SDS011;2720;52.396;10.064;2023-02-28T14:13:36;3.10;;;1.70;;
5393;SDS011;2720;52.396;10.064;2023-02-28T14:16:10;2.27;;;1.77;;
5393;SDS011;2720;52.396;10.064;2023-02-28T14:18:40;1.97;;;1.70;;
5393;SDS011;2720;52.396;10.064;2023-02-28T14:21:16;2.40;;;1.77;;
5393;SDS011;2720;52.396;10.064;2023-02-28T14:29:53;3.10;;;2.00;;
5393;SDS011;2720;52.396;10.064;2023-02-28T14:32:41;4.40;;;1.67;;
5393;SDS011;2720;52.396;10.064;2023-02-28T14:35:17;2.03;;;1.50;;
5393;SDS011;2720;52.396;10.064;2023-02-28T14:38:08;4.50;;;1.80;;
5393;SDS011;2720;52.396;10.064;2023-02-28T14:40:43;2.50;;;1.63;;
5393;SDS011;2720;52.396;10.064;2023-02-28T14:43:18;1.50;;;1.40;;
5393;SDS011;2720;52.396;10.064;2023-02-28T14:45:49;2.80;;;1.93;;
5393;SDS011;2720;52.396;10.064;2023-02-28T14:48:17;3.60;;;2.50;;
5393;SDS011;2720;52.396;10.064;2023-02-28T14:50:48;4.70;;;2.27;;
5393;SDS011;2720;52.396;10.064;2023-02-28T14:53:19;7.53;;;3.63;;
5393;SDS011;2720;52.396;10.064;2023-02-28T14:55:48;5.63;;;2.50;;
5393;SDS011;2720;52.396;10.064;2023-02-28T14:58:22;3.47;;;1.40;;
5393;SDS011;2720;52.396;10.064;2023-02-28T15:00:52;4.77;;;2.03;;
5393;SDS011;2720;52.396;10.064;2023-02-28T15:03:20;3.10;;;1.97;;
5393;SDS011;2720;52.396;10.064;2023-02-28T15:05:52;2.37;;;2.17;;
5393;SDS011;2720;52.396;10.064;2023-02-28T15:08:22;1.57;;;1.47;;
5393;SDS011;2720;52.396;10.064;2023-02-28T15:10:51;5.07;;;2.10;;
5393;SDS011;2720;52.396;10.064;2023-02-28T15:13:21;3.13;;;1.87;;
5393;SDS011;2720;52.396;10.064;2023-02-28T15:15:50;4.33;;;1.87;;
5393;SDS011;2720;52.396;10.064;2023-02-28T15:18:23;3.20;;;2.10;;
5393;SDS011;2720;52.396;10.064;2023-02-28T15:20:57;4.33;;;1.80;;
5393;SDS011;2720;52.396;10.064;2023-02-28T15:23:31;3.83;;;1.80;;
5393;SDS011;2720;52.396;10.064;2023-02-28T15:26:01;4.17;;;1.80;;
5393;SDS011;2720;52.396;10.064;2023-02-28T15:28:28;8.17;;;4.07;;
5393;SDS011;2720;52.396;10.064;2023-02-28T15:30:57;2.93;;;2.37;;
5393;SDS011;2720;52.396;10.064;2023-02-28T15:33:26;3.40;;;1.47;;
5393;SDS011;2720;52.396;10.064;2023-02-28T15:36:05;4.13;;;1.80;;
5393;SDS011;2720;52.396;10.064;2023-02-28T15:38:38;8.20;;;3.30;;
5393;SDS011;2720;52.396;10.064;2023-02-28T15:41:05;5.47;;;2.20;;
5393;SDS011;2720;52.396;10.064;2023-02-28T15:43:47;3.90;;;2.07;;
5393;SDS011;2720;52.396;10.064;2023-02-28T15:46:14;4.00;;;2.20;;
5393;SDS011;2720;52.396;10.064;2023-02-28T15:48:43;4.83;;;3.20;;
5393;SDS011;2720;52.396;10.064;2023-02-28T15:51:16;2.80;;;2.23;;
5393;SDS011;2720;52.396;10.064;2023-02-28T15:53:47;4.80;;;2.50;;
5393;SDS011;2720;52.396;10.064;2023-02-28T15:56:20;4.37;;;2.90;;